createdAt,value
2023-03-03T00:00:08.614Z,974.08
2023-03-03T00:01:08.599Z,974.06
2023-03-03T00:02:08.669Z,974.04
2023-03-03T00:03:08.640Z,974.10
2023-03-03T00:04:08.540Z,974.09
2023-03-03T00:05:08.523Z,974.07
2023-03-03T00:06:08.504Z,974.03
2023-03-03T00:07:08.494Z,974.07
2023-03-03T00:08:08.469Z,974.07
2023-03-03T00:09:08.455Z,974.05
2023-03-03T00:10:08.433Z,974.04
2023-03-03T00:11:08.438Z,974.06
2023-03-03T00:12:08.399Z,974.02
2023-03-03T00:13:08.384Z,974.02
2023-03-03T00:14:08.364Z,974.01
2023-03-03T00:15:08.350Z,974.04
2023-03-03T00:16:08.370Z,974.04
2023-03-03T00:17:08.324Z,974.01
2023-03-03T00:18:08.297Z,974.03
2023-03-03T00:19:08.281Z,974.03
2023-03-03T00:20:08.266Z,974.06
2023-03-03T00:21:08.245Z,974.05
2023-03-03T00:22:08.224Z,974.07
2023-03-03T00:23:08.208Z,974.08
2023-03-03T00:24:08.188Z,974.08
2023-03-03T00:25:08.174Z,974.11
2023-03-03T00:26:08.152Z,974.11
2023-03-03T00:27:08.158Z,974.11
2023-03-03T00:28:08.126Z,974.07
2023-03-03T00:29:08.105Z,974.08
2023-03-03T00:30:08.088Z,974.08
2023-03-03T00:31:08.078Z,974.04
2023-03-03T00:32:08.146Z,974.06
2023-03-03T00:33:08.038Z,974.04
2023-03-03T00:34:08.017Z,974.05
2023-03-03T00:35:08.004Z,974.06
2023-03-03T00:36:07.983Z,974.08
2023-03-03T00:37:07.967Z,974.08
2023-03-03T00:38:07.946Z,974.08
2023-03-03T00:39:07.933Z,974.07
2023-03-03T00:40:07.913Z,974.09
2023-03-03T00:41:07.895Z,974.09
2023-03-03T00:42:07.878Z,974.08
2023-03-03T00:43:07.886Z,974.07
2023-03-03T00:44:07.847Z,974.10
2023-03-03T00:45:07.836Z,974.05
2023-03-03T00:46:07.820Z,974.04
2023-03-03T00:47:07.795Z,974.10
2023-03-03T00:48:07.773Z,974.10
2023-03-03T00:49:07.758Z,974.12
2023-03-03T00:50:07.753Z,974.11
2023-03-03T00:51:07.724Z,974.12
2023-03-03T00:52:07.703Z,974.10
2023-03-03T00:53:07.695Z,974.14
2023-03-03T00:54:07.669Z,974.09
2023-03-03T00:55:07.654Z,974.06
2023-03-03T00:56:07.638Z,974.09
2023-03-03T00:57:07.623Z,974.08
2023-03-03T00:58:07.613Z,974.07
2023-03-03T00:59:07.638Z,974.08
2023-03-03T01:00:07.566Z,974.10
2023-03-03T01:01:07.549Z,974.06
2023-03-03T01:02:07.528Z,974.08
2023-03-03T01:03:07.514Z,974.08
2023-03-03T01:04:07.493Z,974.07
2023-03-03T01:05:07.487Z,974.04
2023-03-03T01:06:07.473Z,974.04
2023-03-03T01:07:07.448Z,974.05
2023-03-03T01:08:07.429Z,974.09
2023-03-03T01:09:07.409Z,974.05
2023-03-03T01:10:07.392Z,974.02
2023-03-03T01:11:07.401Z,974.02
2023-03-03T01:12:07.356Z,974.03
2023-03-03T01:13:07.364Z,974.02
2023-03-03T01:14:07.380Z,973.98
2023-03-03T01:15:07.327Z,973.96
2023-03-03T01:16:07.361Z,973.94
2023-03-03T01:17:07.268Z,973.96
2023-03-03T01:18:07.256Z,973.98
2023-03-03T01:19:07.244Z,974.04
2023-03-03T01:20:07.214Z,974.00
2023-03-03T01:21:07.199Z,974.00
2023-03-03T01:22:07.177Z,973.99
2023-03-03T01:23:07.167Z,973.98
2023-03-03T01:24:07.152Z,974.00
2023-03-03T01:25:07.130Z,973.98
2023-03-03T01:26:07.110Z,974.00
2023-03-03T01:27:07.107Z,973.98
2023-03-03T01:28:07.120Z,973.96
2023-03-03T01:29:07.062Z,973.96
2023-03-03T01:30:07.040Z,973.93
2023-03-03T01:31:07.089Z,973.95
2023-03-03T01:32:07.049Z,973.92
2023-03-03T01:33:06.990Z,973.97
2023-03-03T01:34:06.971Z,973.94
2023-03-03T01:35:06.959Z,973.94
2023-03-03T01:36:06.936Z,973.95
2023-03-03T01:37:06.922Z,973.91
2023-03-03T01:38:06.901Z,973.92
2023-03-03T01:39:06.888Z,973.91
2023-03-03T01:40:06.866Z,973.92
2023-03-03T01:41:06.854Z,973.92
2023-03-03T01:42:06.832Z,973.94
2023-03-03T01:43:06.815Z,973.96
2023-03-03T01:44:06.796Z,973.94
2023-03-03T01:45:06.820Z,973.94
2023-03-03T01:46:06.812Z,973.96
2023-03-03T01:47:06.767Z,973.98
2023-03-03T01:48:06.727Z,973.96
2023-03-03T01:49:06.711Z,974.01
2023-03-03T01:50:06.703Z,973.95
2023-03-03T01:51:06.680Z,973.96
2023-03-03T01:52:06.657Z,973.94
2023-03-03T01:53:06.641Z,973.93
2023-03-03T01:54:06.620Z,973.95
2023-03-03T01:55:06.607Z,973.94
2023-03-03T01:56:06.590Z,973.96
2023-03-03T01:57:06.572Z,973.91
2023-03-03T01:58:06.553Z,973.92
2023-03-03T01:59:06.545Z,973.90
2023-03-03T02:00:06.532Z,973.90
2023-03-03T02:01:06.504Z,973.90
2023-03-03T02:02:06.577Z,973.93
2023-03-03T02:03:06.587Z,973.92
2023-03-03T02:04:06.448Z,973.93
2023-03-03T02:05:06.434Z,973.91
2023-03-03T02:06:06.419Z,973.91
2023-03-03T02:07:06.398Z,973.89
2023-03-03T02:08:06.378Z,973.90
2023-03-03T02:09:06.363Z,973.93
2023-03-03T02:10:06.357Z,973.90
2023-03-03T02:11:06.330Z,973.85
2023-03-03T02:12:06.311Z,973.88
2023-03-03T02:13:06.296Z,973.85
2023-03-03T02:14:06.276Z,973.89
2023-03-03T02:15:06.260Z,973.90
2023-03-03T02:16:06.259Z,973.88
2023-03-03T02:17:06.237Z,973.90
2023-03-03T02:18:06.217Z,973.88
2023-03-03T02:19:06.222Z,973.89
2023-03-03T02:20:06.184Z,973.87
2023-03-03T02:21:06.165Z,973.86
2023-03-03T02:22:06.143Z,973.84
2023-03-03T02:23:06.127Z,973.87
2023-03-03T02:24:06.111Z,973.84
2023-03-03T02:25:06.090Z,973.79
2023-03-03T02:26:06.074Z,973.81
2023-03-03T02:27:06.059Z,973.78
2023-03-03T02:28:06.038Z,973.80
2023-03-03T02:29:06.032Z,973.86
2023-03-03T02:30:06.006Z,973.81
2023-03-03T02:31:05.988Z,973.82
2023-03-03T02:32:06.017Z,973.83
2023-03-03T02:33:05.959Z,973.84
2023-03-03T02:34:05.936Z,973.86
2023-03-03T02:35:05.940Z,973.85
2023-03-03T02:36:05.905Z,973.81
2023-03-03T02:37:05.887Z,973.85
2023-03-03T02:38:05.866Z,973.83
2023-03-03T02:39:05.854Z,973.85
2023-03-03T02:40:05.832Z,973.85
2023-03-03T02:41:05.817Z,973.83
2023-03-03T02:42:05.799Z,973.84
2023-03-03T02:43:05.783Z,973.80
2023-03-03T02:44:05.766Z,973.82
2023-03-03T02:45:05.746Z,973.83
2023-03-03T02:46:05.859Z,973.82
2023-03-03T02:47:05.711Z,973.84
2023-03-03T02:48:05.697Z,973.86
2023-03-03T02:49:05.689Z,973.89
2023-03-03T02:50:05.656Z,973.88
2023-03-03T02:51:05.655Z,973.86
2023-03-03T02:52:05.623Z,973.88
2023-03-03T02:53:05.600Z,973.89
2023-03-03T02:54:05.589Z,973.86
2023-03-03T02:55:05.577Z,973.89
2023-03-03T02:56:05.553Z,973.88
2023-03-03T02:57:05.536Z,973.82
2023-03-03T02:58:05.516Z,973.84
2023-03-03T02:59:05.500Z,973.83
2023-03-03T03:00:05.485Z,973.87
2023-03-03T03:01:05.550Z,973.83
2023-03-03T03:02:05.450Z,973.82
2023-03-03T03:03:05.425Z,973.80
2023-03-03T03:04:05.443Z,973.78
2023-03-03T03:05:05.390Z,973.78
2023-03-03T03:06:05.376Z,973.81
2023-03-03T03:07:05.378Z,973.78
2023-03-03T03:08:05.342Z,973.79
2023-03-03T03:09:05.321Z,973.82
2023-03-03T03:10:05.310Z,973.83
2023-03-03T03:11:05.294Z,973.82
2023-03-03T03:12:05.395Z,973.83
2023-03-03T03:13:05.257Z,973.82
2023-03-03T03:14:05.242Z,973.83
2023-03-03T03:15:05.218Z,973.81
2023-03-03T03:16:05.249Z,973.78
2023-03-03T03:17:05.193Z,973.80
2023-03-03T03:18:05.167Z,973.79
2023-03-03T03:19:05.147Z,973.83
2023-03-03T03:20:05.143Z,973.82
2023-03-03T03:21:05.113Z,973.81
2023-03-03T03:22:05.102Z,973.82
2023-03-03T03:23:05.097Z,973.83
2023-03-03T03:24:05.070Z,973.81
2023-03-03T03:25:05.045Z,973.76
2023-03-03T03:26:05.030Z,973.79
2023-03-03T03:27:05.019Z,973.78
2023-03-03T03:28:04.994Z,973.81
2023-03-03T03:29:05.014Z,973.77
2023-03-03T03:30:04.960Z,973.80
2023-03-03T03:31:05.066Z,973.83
2023-03-03T03:32:05.051Z,973.80
2023-03-03T03:33:04.917Z,973.80
2023-03-03T03:34:04.900Z,973.79
2023-03-03T03:35:04.870Z,973.80
2023-03-03T03:36:04.861Z,973.80
2023-03-03T03:37:04.839Z,973.81
2023-03-03T03:38:04.822Z,973.75
2023-03-03T03:39:04.841Z,973.75
2023-03-03T03:40:04.787Z,973.78
2023-03-03T03:41:04.768Z,973.74
2023-03-03T03:42:04.760Z,973.74
2023-03-03T03:43:04.736Z,973.81
2023-03-03T03:44:04.732Z,973.73
2023-03-03T03:45:04.714Z,973.72
2023-03-03T03:46:04.725Z,973.78
2023-03-03T03:47:04.662Z,973.73
2023-03-03T03:48:04.661Z,973.75
2023-03-03T03:49:04.643Z,973.73
2023-03-03T03:50:04.622Z,973.72
2023-03-03T03:51:04.598Z,973.71
2023-03-03T03:52:04.595Z,973.71
2023-03-03T03:53:04.557Z,973.73
2023-03-03T03:54:04.547Z,973.71
2023-03-03T03:55:04.544Z,973.68
2023-03-03T03:56:04.510Z,973.69
2023-03-03T03:57:04.490Z,973.66
2023-03-03T03:58:04.483Z,973.66
2023-03-03T03:59:04.458Z,973.64
2023-03-03T04:00:04.443Z,973.64
2023-03-03T04:01:04.422Z,973.65
2023-03-03T04:02:04.542Z,973.64
2023-03-03T04:03:04.559Z,973.66
2023-03-03T04:04:04.377Z,973.67
2023-03-03T04:05:04.425Z,973.69
2023-03-03T04:06:04.345Z,973.69
2023-03-03T04:07:04.321Z,973.70
2023-03-03T04:08:04.310Z,973.69
2023-03-03T04:09:04.289Z,973.73
2023-03-03T04:10:04.273Z,973.72
2023-03-03T04:11:04.270Z,973.74
2023-03-03T04:12:04.239Z,973.81
2023-03-03T04:13:04.217Z,973.80
2023-03-03T04:14:04.206Z,973.83
2023-03-03T04:15:04.183Z,973.79
2023-03-03T04:16:04.269Z,973.81
2023-03-03T04:17:04.169Z,973.82
2023-03-03T04:18:04.133Z,973.79
2023-03-03T04:19:04.113Z,973.83
2023-03-03T04:20:04.104Z,973.83
2023-03-03T04:21:04.084Z,973.89
2023-03-03T04:22:04.069Z,973.85
2023-03-03T04:23:04.045Z,973.89
2023-03-03T04:24:04.038Z,973.88
2023-03-03T04:25:04.010Z,973.88
2023-03-03T04:26:03.994Z,973.84
2023-03-03T04:27:03.997Z,973.83
2023-03-03T04:28:05.574Z,973.87
2023-03-03T04:29:03.942Z,973.88
2023-03-03T04:30:03.926Z,973.85
2023-03-03T04:31:03.929Z,973.87
2023-03-03T04:32:03.948Z,973.88
2023-03-03T04:33:03.872Z,973.89
2023-03-03T04:34:03.855Z,973.90
2023-03-03T04:35:08.270Z,973.90
2023-03-03T04:36:03.821Z,973.89
2023-03-03T04:37:03.800Z,973.90
2023-03-03T04:38:03.789Z,973.91
2023-03-03T04:39:03.775Z,973.93
2023-03-03T04:40:03.752Z,973.90
2023-03-03T04:41:03.755Z,973.91
2023-03-03T04:42:03.717Z,973.87
2023-03-03T04:43:03.738Z,973.86
2023-03-03T04:44:03.684Z,973.83
2023-03-03T04:45:03.665Z,973.82
2023-03-03T04:46:03.706Z,973.82
2023-03-03T04:47:03.629Z,973.83
2023-03-03T04:48:03.613Z,973.87
2023-03-03T04:49:03.593Z,973.81
2023-03-03T04:50:03.581Z,973.82
2023-03-03T04:51:03.565Z,973.85
2023-03-03T04:52:03.543Z,973.84
2023-03-03T04:53:03.526Z,973.88
2023-03-03T04:54:03.515Z,973.85
2023-03-03T04:55:03.507Z,973.90
2023-03-03T04:56:03.477Z,973.91
2023-03-03T04:57:03.454Z,973.91
2023-03-03T04:58:03.438Z,973.93
2023-03-03T04:59:03.450Z,973.96
2023-03-03T05:00:03.420Z,973.91
2023-03-03T05:01:03.384Z,973.94
2023-03-03T05:02:03.368Z,973.97
2023-03-03T05:03:03.348Z,973.93
2023-03-03T05:04:03.352Z,973.95
2023-03-03T05:05:03.371Z,973.94
2023-03-03T05:06:03.301Z,973.92
2023-03-03T05:07:03.282Z,973.90
2023-03-03T05:08:03.259Z,973.91
2023-03-03T05:09:03.241Z,973.90
2023-03-03T05:10:03.221Z,973.93
2023-03-03T05:11:03.203Z,973.89
2023-03-03T05:12:03.187Z,973.94
2023-03-03T05:13:03.173Z,973.92
2023-03-03T05:14:03.158Z,973.90
2023-03-03T05:15:03.152Z,973.93
2023-03-03T05:16:03.181Z,973.93
2023-03-03T05:17:03.099Z,973.95
2023-03-03T05:18:03.097Z,973.98
2023-03-03T05:19:03.072Z,973.98
2023-03-03T05:20:03.052Z,973.97
2023-03-03T05:21:03.025Z,973.95
2023-03-03T05:22:03.014Z,974.03
2023-03-03T05:23:02.996Z,974.03
2023-03-03T05:24:02.976Z,974.04
2023-03-03T05:25:02.976Z,974.02
2023-03-03T05:26:02.944Z,974.01
2023-03-03T05:27:02.920Z,974.03
2023-03-03T05:28:02.907Z,974.02
2023-03-03T05:29:02.889Z,974.01
2023-03-03T05:30:02.871Z,974.03
2023-03-03T05:31:02.963Z,974.04
2023-03-03T05:32:02.903Z,974.05
2023-03-03T05:33:02.815Z,974.01
2023-03-03T05:34:02.802Z,974.06
2023-03-03T05:35:02.783Z,974.05
2023-03-03T05:36:02.770Z,974.03
2023-03-03T05:37:02.750Z,974.03
2023-03-03T05:38:05.331Z,974.04
2023-03-03T05:39:02.716Z,974.02
2023-03-03T05:40:02.698Z,974.03
2023-03-03T05:41:02.676Z,974.04
2023-03-03T05:42:02.666Z,974.06
2023-03-03T05:43:02.702Z,974.09
2023-03-03T05:44:02.630Z,974.05
2023-03-03T05:45:02.604Z,974.07
2023-03-03T05:46:02.599Z,974.07
2023-03-03T05:47:02.598Z,974.09
2023-03-03T05:48:02.557Z,974.13
2023-03-03T05:49:02.540Z,974.15
2023-03-03T05:50:02.528Z,974.10
2023-03-03T05:51:02.504Z,974.14
2023-03-03T05:52:02.493Z,974.11
2023-03-03T05:53:02.466Z,974.12
2023-03-03T05:54:02.458Z,974.08
2023-03-03T05:55:02.439Z,974.15
2023-03-03T05:56:02.424Z,974.14
2023-03-03T05:57:02.400Z,974.18
2023-03-03T05:58:02.383Z,974.19
2023-03-03T05:59:02.365Z,974.22
2023-03-03T06:00:02.353Z,974.22
2023-03-03T06:01:02.340Z,974.20
2023-03-03T06:02:02.384Z,974.24
2023-03-03T06:03:02.428Z,974.22
2023-03-03T06:04:02.285Z,974.25
2023-03-03T06:05:02.259Z,974.26
2023-03-03T06:06:02.252Z,974.24
2023-03-03T06:07:02.230Z,974.26
2023-03-03T06:08:02.212Z,974.27
2023-03-03T06:09:02.190Z,974.29
2023-03-03T06:10:02.182Z,974.27
2023-03-03T06:11:02.162Z,974.25
2023-03-03T06:12:02.149Z,974.28
2023-03-03T06:13:02.122Z,974.26
2023-03-03T06:14:02.108Z,974.26
2023-03-03T06:15:02.088Z,974.28
2023-03-03T06:16:02.171Z,974.29
2023-03-03T06:17:02.050Z,974.31
2023-03-03T06:18:02.038Z,974.35
2023-03-03T06:19:02.037Z,974.33
2023-03-03T06:20:02.024Z,974.34
2023-03-03T06:21:01.988Z,974.34
2023-03-03T06:22:01.968Z,974.34
2023-03-03T06:23:01.965Z,974.36
2023-03-03T06:24:01.936Z,974.35
2023-03-03T06:25:01.928Z,974.37
2023-03-03T06:26:01.901Z,974.37
2023-03-03T06:27:01.880Z,974.36
2023-03-03T06:28:01.864Z,974.36
2023-03-03T06:29:01.842Z,974.37
2023-03-03T06:30:01.832Z,974.39
2023-03-03T06:31:01.815Z,974.35
2023-03-03T06:32:01.951Z,974.34
2023-03-03T06:33:01.779Z,974.39
2023-03-03T06:34:01.763Z,974.41
2023-03-03T06:35:01.761Z,974.42
2023-03-03T06:36:03.562Z,974.44
2023-03-03T06:37:01.701Z,974.49
2023-03-03T06:38:01.695Z,974.49
2023-03-03T06:39:01.668Z,974.52
2023-03-03T06:40:01.662Z,974.49
2023-03-03T06:41:01.633Z,974.53
2023-03-03T06:42:01.619Z,974.50
2023-03-03T06:43:01.599Z,974.55
2023-03-03T06:44:01.596Z,974.59
2023-03-03T06:45:01.563Z,974.58
2023-03-03T06:46:01.590Z,974.59
2023-03-03T06:47:01.530Z,974.60
2023-03-03T06:48:01.521Z,974.63
2023-03-03T06:49:01.499Z,974.64
2023-03-03T06:50:01.480Z,974.68
2023-03-03T06:51:01.483Z,974.68
2023-03-03T06:52:01.446Z,974.72
2023-03-03T06:53:01.425Z,974.71
2023-03-03T06:54:01.416Z,974.76
2023-03-03T06:55:01.392Z,974.77
2023-03-03T06:56:01.377Z,974.79
2023-03-03T06:57:01.357Z,974.77
2023-03-03T06:58:01.339Z,974.83
2023-03-03T06:59:01.327Z,974.82
2023-03-03T07:00:01.316Z,974.84
2023-03-03T07:01:01.365Z,974.81
2023-03-03T07:02:01.275Z,974.79
2023-03-03T07:03:01.262Z,974.77
2023-03-03T07:04:01.286Z,974.80
2023-03-03T07:05:01.227Z,974.84
2023-03-03T07:06:01.207Z,974.83
2023-03-03T07:07:01.217Z,974.86
2023-03-03T07:08:01.186Z,974.88
2023-03-03T07:09:01.168Z,974.87
2023-03-03T07:10:01.144Z,974.88
2023-03-03T07:11:01.131Z,974.87
2023-03-03T07:12:01.113Z,974.88
2023-03-03T07:13:01.096Z,974.89
2023-03-03T07:14:01.076Z,974.88
2023-03-03T07:15:01.063Z,974.87
2023-03-03T07:16:01.047Z,974.88
2023-03-03T07:17:01.081Z,974.89
2023-03-03T07:18:01.009Z,974.91
2023-03-03T07:19:00.996Z,974.91
2023-03-03T07:20:00.976Z,974.88
2023-03-03T07:21:00.962Z,974.87
2023-03-03T07:22:00.944Z,974.92
2023-03-03T07:23:00.951Z,974.93
2023-03-03T07:24:00.913Z,974.95
2023-03-03T07:25:00.895Z,974.99
2023-03-03T07:26:00.875Z,974.96
2023-03-03T07:27:00.864Z,974.97
2023-03-03T07:28:00.844Z,974.94
2023-03-03T07:29:00.833Z,974.97
2023-03-03T07:30:00.809Z,974.94
2023-03-03T07:31:00.876Z,974.94
2023-03-03T07:32:00.877Z,974.95
2023-03-03T07:33:00.768Z,974.97
2023-03-03T07:34:00.745Z,974.94
2023-03-03T07:35:00.730Z,974.97
2023-03-03T07:36:00.711Z,975.01
2023-03-03T07:37:00.693Z,974.99
2023-03-03T07:38:00.679Z,975.02
2023-03-03T07:39:00.682Z,975.03
2023-03-03T07:40:00.654Z,974.99
2023-03-03T07:41:00.629Z,975.04
2023-03-03T07:42:00.611Z,975.03
2023-03-03T07:43:00.594Z,974.99
2023-03-03T07:44:00.575Z,975.01
2023-03-03T07:45:00.574Z,974.99
2023-03-03T07:46:02.571Z,975.02
2023-03-03T07:47:00.536Z,975.01
2023-03-03T07:48:00.511Z,975.00
2023-03-03T07:49:00.501Z,975.02
2023-03-03T07:50:00.492Z,975.04
2023-03-03T07:51:00.469Z,975.07
2023-03-03T07:52:00.446Z,975.08
2023-03-03T07:53:00.430Z,975.09
2023-03-03T07:54:00.410Z,975.11
2023-03-03T07:55:00.434Z,975.10
2023-03-03T07:56:00.374Z,975.13
2023-03-03T07:57:00.363Z,975.11
2023-03-03T07:58:00.342Z,975.07
2023-03-03T07:59:00.331Z,975.13
2023-03-03T08:00:00.311Z,975.13
2023-03-03T08:01:00.325Z,975.17
2023-03-03T08:02:00.275Z,975.15
2023-03-03T08:03:00.262Z,975.17
2023-03-03T08:04:00.307Z,975.16
2023-03-03T08:05:01.751Z,975.20
2023-03-03T08:06:00.212Z,975.19
2023-03-03T08:07:00.201Z,975.20
2023-03-03T08:08:00.177Z,975.24
2023-03-03T08:09:00.163Z,975.22
2023-03-03T08:10:00.216Z,975.19
2023-03-03T08:11:00.158Z,975.22
2023-03-03T08:12:00.116Z,975.17
2023-03-03T08:13:00.122Z,975.18
2023-03-03T08:14:00.085Z,975.17
2023-03-03T08:15:00.091Z,975.14
2023-03-03T08:16:00.094Z,975.16
2023-03-03T08:17:01.782Z,975.17
2023-03-03T08:18:00.001Z,975.17
2023-03-03T08:18:59.985Z,975.18
2023-03-03T08:19:59.968Z,975.21
2023-03-03T08:20:59.949Z,975.21
2023-03-03T08:21:59.938Z,975.20
2023-03-03T08:22:59.918Z,975.20
2023-03-03T08:23:59.903Z,975.23
2023-03-03T08:24:59.881Z,975.28
2023-03-03T08:25:59.896Z,975.23
2023-03-03T08:26:59.871Z,975.24
2023-03-03T08:27:59.832Z,975.29
2023-03-03T08:28:59.814Z,975.30
2023-03-03T08:29:59.795Z,975.28
2023-03-03T08:31:15.043Z,975.27
2023-03-03T08:31:59.862Z,975.26
2023-03-03T08:32:59.803Z,975.25
2023-03-03T08:33:59.729Z,975.31
2023-03-03T08:35:59.832Z,975.28
2023-03-03T08:36:59.679Z,975.26
2023-03-03T08:37:59.673Z,975.23
2023-03-03T08:38:59.644Z,975.22
2023-03-03T08:39:59.631Z,975.22
2023-03-03T08:40:59.613Z,975.26
2023-03-03T08:41:59.598Z,975.24
2023-03-03T08:42:59.597Z,975.23
2023-03-03T08:43:59.569Z,975.22
2023-03-03T08:44:59.547Z,975.28
2023-03-03T08:45:59.561Z,975.30
2023-03-03T08:46:59.516Z,975.26
2023-03-03T08:47:59.508Z,975.26
2023-03-03T08:48:59.489Z,975.23
2023-03-03T08:49:59.472Z,975.27
2023-03-03T08:50:59.454Z,975.24
2023-03-03T08:51:59.441Z,975.26
2023-03-03T08:52:59.419Z,975.28
2023-03-03T08:53:59.419Z,975.24
2023-03-03T08:54:59.390Z,975.28
2023-03-03T08:55:59.378Z,975.28
2023-03-03T08:56:59.357Z,975.29
2023-03-03T08:57:59.344Z,975.30
2023-03-03T08:59:02.608Z,975.29
2023-03-03T08:59:59.315Z,975.27
2023-03-03T09:00:59.305Z,975.30
2023-03-03T09:01:59.349Z,975.25
2023-03-03T09:02:59.264Z,975.28
2023-03-03T09:03:59.248Z,975.29
2023-03-03T09:04:59.234Z,975.30
2023-03-03T09:05:59.220Z,975.35
2023-03-03T09:06:59.197Z,975.35
2023-03-03T09:07:59.186Z,975.34
2023-03-03T09:08:59.171Z,975.37
2023-03-03T09:09:59.156Z,975.36
2023-03-03T09:10:59.135Z,975.45
2023-03-03T09:11:59.120Z,975.44
2023-03-03T09:12:59.101Z,975.43
2023-03-03T09:13:59.091Z,975.44
2023-03-03T09:14:59.167Z,975.47
2023-03-03T09:15:59.098Z,975.50
2023-03-03T09:16:59.036Z,975.47
2023-03-03T09:17:59.029Z,975.43
2023-03-03T09:18:59.007Z,975.44
2023-03-03T09:19:58.997Z,975.46
2023-03-03T09:20:58.976Z,975.40
2023-03-03T09:21:58.968Z,975.42
2023-03-03T09:22:58.946Z,975.42
2023-03-03T09:23:58.932Z,975.42
2023-03-03T09:24:58.975Z,975.40
2023-03-03T09:25:58.900Z,975.40
2023-03-03T09:26:58.891Z,975.39
2023-03-03T09:27:58.873Z,975.43
2023-03-03T09:28:58.848Z,975.42
2023-03-03T09:29:58.838Z,975.45
2023-03-03T09:30:58.839Z,975.46
2023-03-03T09:31:59.225Z,975.43
2023-03-03T09:32:58.793Z,975.43
2023-03-03T09:33:58.774Z,975.45
2023-03-03T09:34:58.758Z,975.40
2023-03-03T09:35:58.757Z,975.42
2023-03-03T09:36:58.723Z,975.43
2023-03-03T09:37:58.711Z,975.48
2023-03-03T09:38:58.703Z,975.46
2023-03-03T09:39:58.685Z,975.50
2023-03-03T09:40:58.676Z,975.45
2023-03-03T09:41:58.657Z,975.47
2023-03-03T09:42:58.636Z,975.50
2023-03-03T09:43:58.627Z,975.44
2023-03-03T09:44:58.602Z,975.48
2023-03-03T09:45:58.599Z,975.51
2023-03-03T09:46:58.704Z,975.45
2023-03-03T09:47:58.556Z,975.48
2023-03-03T09:48:58.540Z,975.46
2023-03-03T09:50:00.720Z,975.49
2023-03-03T09:50:58.509Z,975.50
2023-03-03T09:51:58.499Z,975.50
2023-03-03T09:52:58.475Z,975.49
2023-03-03T09:53:58.467Z,975.43
2023-03-03T09:54:58.445Z,975.48
2023-03-03T09:55:58.433Z,975.39
2023-03-03T09:56:58.415Z,975.47
2023-03-03T09:58:09.995Z,975.47
2023-03-03T09:58:58.392Z,975.48
2023-03-03T09:59:58.373Z,975.43
2023-03-03T10:00:58.354Z,975.46
2023-03-03T10:01:58.351Z,975.46
2023-03-03T10:02:58.382Z,975.42
2023-03-03T10:03:58.339Z,975.52
2023-03-03T10:04:58.302Z,975.47
2023-03-03T10:05:58.281Z,975.47
2023-03-03T10:06:58.261Z,975.44
2023-03-03T10:07:58.250Z,975.47
2023-03-03T10:08:58.258Z,975.43
2023-03-03T10:09:58.226Z,975.43
2023-03-03T10:10:58.201Z,975.39
2023-03-03T10:11:58.189Z,975.42
2023-03-03T10:12:58.172Z,975.39
2023-03-03T10:13:58.159Z,975.38
2023-03-03T10:14:58.143Z,975.40
2023-03-03T10:15:58.131Z,975.40
2023-03-03T10:16:58.109Z,975.37
2023-03-03T10:17:58.099Z,975.38
2023-03-03T10:18:58.102Z,975.40
2023-03-03T10:19:58.072Z,975.39
2023-03-03T10:20:58.049Z,975.37
2023-03-03T10:21:58.042Z,975.39
2023-03-03T10:22:58.023Z,975.40
2023-03-03T10:23:59.342Z,975.41
2023-03-03T10:24:57.991Z,975.43
2023-03-03T10:25:57.991Z,975.41
2023-03-03T10:27:12.320Z,975.41
2023-03-03T10:27:57.956Z,975.42
2023-03-03T10:28:57.932Z,975.42
2023-03-03T10:29:57.935Z,975.40
2023-03-03T10:31:05.670Z,975.39
2023-03-03T10:31:58.136Z,975.42
2023-03-03T10:32:58.031Z,975.42
2023-03-03T10:33:58.057Z,975.45
2023-03-03T10:34:57.863Z,975.44
2023-03-03T10:36:06.926Z,975.45
2023-03-03T10:36:57.814Z,975.44
2023-03-03T10:37:57.803Z,975.46
2023-03-03T10:38:57.785Z,975.42
2023-03-03T10:39:57.777Z,975.41
2023-03-03T10:40:57.761Z,975.38
2023-03-03T10:41:57.746Z,975.37
2023-03-03T10:42:57.726Z,975.45
2023-03-03T10:43:57.959Z,975.42
2023-03-03T10:44:57.943Z,975.42
2023-03-03T10:45:57.984Z,975.45
2023-03-03T10:46:57.798Z,975.51
2023-03-03T10:47:58.029Z,975.45
2023-03-03T10:48:57.808Z,975.47
2023-03-03T10:49:57.917Z,975.47
2023-03-03T10:50:58.061Z,975.48
2023-03-03T10:51:57.883Z,975.48
2023-03-03T10:52:57.985Z,975.48
2023-03-03T10:53:57.571Z,975.48
2023-03-03T10:54:57.741Z,975.51
2023-03-03T10:55:57.798Z,975.48
2023-03-03T10:56:57.682Z,975.52
2023-03-03T10:57:57.861Z,975.49
2023-03-03T10:58:57.867Z,975.48
2023-03-03T10:59:57.659Z,975.50
2023-03-03T11:00:57.513Z,975.48
2023-03-03T11:01:57.593Z,975.50
2023-03-03T11:02:57.450Z,975.47
2023-03-03T11:03:57.865Z,975.46
2023-03-03T11:04:57.786Z,975.45
2023-03-03T11:05:57.845Z,975.46
2023-03-03T11:06:57.675Z,975.46
2023-03-03T11:07:57.378Z,975.46
2023-03-03T11:08:57.630Z,975.45
2023-03-03T11:09:57.528Z,975.44
2023-03-03T11:10:57.617Z,975.40
2023-03-03T11:11:57.603Z,975.42
2023-03-03T11:12:57.628Z,975.41
2023-03-03T11:13:57.739Z,975.35
2023-03-03T11:14:57.700Z,975.34
2023-03-03T11:15:57.433Z,975.36
2023-03-03T11:16:57.466Z,975.35
2023-03-03T11:17:57.895Z,975.34
2023-03-03T11:19:00.597Z,975.30
2023-03-03T11:19:57.712Z,975.28
2023-03-03T11:20:57.730Z,975.34
2023-03-03T11:21:57.560Z,975.32
2023-03-03T11:22:57.625Z,975.31
2023-03-03T11:23:57.371Z,975.32
2023-03-03T11:24:57.465Z,975.36
2023-03-03T11:25:57.533Z,975.32
2023-03-03T11:26:57.122Z,975.32
2023-03-03T11:27:57.103Z,975.27
2023-03-03T11:28:57.091Z,975.30
2023-03-03T11:29:57.076Z,975.28
2023-03-03T11:30:57.080Z,975.28
2023-03-03T11:31:57.110Z,975.22
2023-03-03T11:32:57.034Z,975.25
2023-03-03T11:33:57.018Z,975.22
2023-03-03T11:34:57.009Z,975.25
2023-03-03T11:35:57.012Z,975.21
2023-03-03T11:36:56.985Z,975.26
2023-03-03T11:37:56.974Z,975.21
2023-03-03T11:38:56.977Z,975.19
2023-03-03T11:39:56.956Z,975.18
2023-03-03T11:40:56.929Z,975.11
2023-03-03T11:41:56.911Z,975.10
2023-03-03T11:42:56.902Z,975.09
2023-03-03T11:43:56.883Z,975.08
2023-03-03T11:44:56.880Z,975.12
2023-03-03T11:45:56.886Z,975.04
2023-03-03T11:46:56.858Z,975.03
2023-03-03T11:47:56.832Z,975.06
2023-03-03T11:48:56.822Z,975.03
2023-03-03T11:49:56.806Z,975.04
2023-03-03T11:50:56.796Z,975.01
2023-03-03T11:51:56.778Z,975.03
2023-03-03T11:52:56.766Z,974.98
2023-03-03T11:53:56.749Z,975.00
2023-03-03T11:54:56.758Z,974.97
2023-03-03T11:55:56.720Z,974.94
2023-03-03T11:56:56.708Z,974.99
2023-03-03T11:57:56.691Z,974.94
2023-03-03T11:58:56.680Z,974.93
2023-03-03T11:59:56.670Z,974.89
2023-03-03T12:00:56.653Z,974.90
2023-03-03T12:01:56.640Z,974.87
2023-03-03T12:02:56.696Z,974.89
2023-03-03T12:03:56.612Z,974.82
2023-03-03T12:04:56.596Z,974.87
2023-03-03T12:05:56.700Z,974.83
2023-03-03T12:06:57.443Z,974.83
2023-03-03T12:07:56.555Z,974.82
2023-03-03T12:08:56.550Z,974.83
2023-03-03T12:09:56.529Z,974.81
2023-03-03T12:10:56.532Z,974.82
2023-03-03T12:11:56.500Z,974.85
2023-03-03T12:12:56.489Z,974.81
2023-03-03T12:13:56.471Z,974.81
2023-03-03T12:14:56.461Z,974.83
2023-03-03T12:15:56.534Z,974.85
2023-03-03T12:16:56.444Z,974.83
2023-03-03T12:17:56.423Z,974.77
2023-03-03T12:18:56.417Z,974.76
2023-03-03T12:19:56.397Z,974.77
2023-03-03T12:20:56.381Z,974.74
2023-03-03T12:21:56.366Z,974.75
2023-03-03T12:23:06.580Z,974.79
2023-03-03T12:23:56.340Z,974.80
2023-03-03T12:24:56.327Z,974.80
2023-03-03T12:25:56.315Z,974.75
2023-03-03T12:26:56.336Z,974.72
2023-03-03T12:27:56.290Z,974.70
2023-03-03T12:28:56.280Z,974.71